Time;durP1;ratioP1;P1;durP2;ratioP2;P2;SDS_P1;SDS_P2;PMS_P1;PMS_P2;Temp;Humidity;BMP_temperature;BMP_pressure;BME280_temperature;BME280_humidity;BME280_pressure;Samples;Min_cycle;Max_cycle;Signal;HPM_P1;HPM_P2
2021/01/11 00:02:25;;;;;;;21.90;13.70;;;;;;;-143.37;100.00;65745.06;5086697;28;20205;-72
2021/01/11 00:04:53;;;;;;;20.40;13.03;;;;;;;-143.37;100.00;65745.06;5085722;28;20320;-71
2021/01/11 00:07:19;;;;;;;23.70;13.47;;;;;;;-143.37;100.00;65745.06;5092397;28;20628;-73
2021/01/11 00:09:45;;;;;;;20.93;13.63;;;;;;;-143.37;100.00;65745.06;5093589;28;20257;-72
2021/01/11 00:12:11;;;;;;;21.33;13.73;;;;;;;-143.37;100.00;65745.06;5079461;28;20197;-72
2021/01/11 00:14:37;;;;;;;18.87;12.93;;;;;;;-143.37;100.00;65745.06;5071845;28;20637;-71
2021/01/11 00:17:03;;;;;;;21.53;14.13;;;;;;;-143.37;100.00;65745.06;5071578;28;20758;-72
2021/01/11 00:19:30;;;;;;;24.00;13.20;;;;;;;-143.37;100.00;65745.06;5073248;28;20274;-72
2021/01/11 00:21:56;;;;;;;19.30;13.17;;;;;;;-143.37;100.00;65745.06;5073085;28;20233;-72
2021/01/11 00:24:22;;;;;;;20.97;13.43;;;;;;;-143.37;100.00;65745.06;5092894;28;20228;-72
2021/01/11 00:26:57;;;;;;;23.83;13.40;;;;;;;-143.37;100.00;65745.06;5093165;28;20259;-72
2021/01/11 00:29:24;;;;;;;19.37;12.43;;;;;;;-143.37;100.00;65745.06;5092074;28;20322;-72
2021/01/11 00:31:50;;;;;;;22.70;13.77;;;;;;;-143.37;100.00;65745.06;5091995;28;20276;-73
2021/01/11 00:34:17;;;;;;;19.30;12.90;;;;;;;-143.37;100.00;65745.06;5095313;28;20232;-71
2021/01/11 00:36:47;;;;;;;21.97;13.10;;;;;;;-143.37;100.00;65745.06;5096154;28;20654;-72
2021/01/11 00:39:14;;;;;;;20.13;12.70;;;;;;;-143.37;100.00;65745.06;5094935;28;20214;-73
2021/01/11 00:41:40;;;;;;;19.40;12.67;;;;;;;-143.37;100.00;65745.06;5092944;28;20258;-71
2021/01/11 00:44:06;;;;;;;18.90;12.40;;;;;;;-143.37;100.00;65745.06;5092284;28;20209;-72
2021/01/11 00:46:32;;;;;;;23.20;13.43;;;;;;;-143.37;100.00;65745.06;5093014;28;20273;-72
2021/01/11 00:48:59;;;;;;;21.03;12.83;;;;;;;-143.37;100.00;65745.06;5092882;28;20635;-71
2021/01/11 00:51:25;;;;;;;17.33;11.43;;;;;;;-143.37;100.00;65745.06;5092472;28;20212;-72
2021/01/11 00:53:51;;;;;;;17.37;11.87;;;;;;;-143.37;100.00;65745.06;5092418;28;20247;-73
2021/01/11 00:56:19;;;;;;;18.37;12.30;;;;;;;-143.37;100.00;65745.06;5092630;28;20256;-72
2021/01/11 00:58:46;;;;;;;18.43;11.93;;;;;;;-143.37;100.00;65745.06;5092237;28;20270;-72
2021/01/11 01:34:15;;;;;;;19.03;12.33;;;;;;;-0.56;100.00;98462.31;5109332;27;20499;-71
2021/01/11 01:36:41;;;;;;;17.63;11.90;;;;;;;-0.68;100.00;98469.81;5109829;28;20227;-71
2021/01/11 01:39:07;;;;;;;17.07;11.93;;;;;;;-0.66;100.00;98472.28;5108646;28;20223;-71
2021/01/11 01:41:33;;;;;;;20.00;12.93;;;;;;;-0.62;100.00;98476.91;5109636;28;20229;-72
2021/01/11 01:43:59;;;;;;;17.83;12.03;;;;;;;-0.66;100.00;98472.28;5107934;28;20619;-72
2021/01/11 01:46:29;;;;;;;18.13;12.20;;;;;;;-0.65;100.00;98473.88;5109799;28;20208;-72
2021/01/11 01:48:57;;;;;;;19.17;12.57;;;;;;;-0.63;100.00;98475.28;5109537;28;20661;-72
2021/01/11 01:51:23;;;;;;;19.47;12.80;;;;;;;-0.64;100.00;98478.25;5109466;28;20214;-72
2021/01/11 01:53:49;;;;;;;18.27;12.40;;;;;;;-0.79;100.00;98481.63;5109119;28;20364;-72
2021/01/11 01:56:16;;;;;;;17.53;11.93;;;;;;;-0.76;100.00;98470.28;5109421;27;20208;-71
2021/01/11 01:58:44;;;;;;;17.67;11.93;;;;;;;-0.75;100.00;98482.75;5109198;28;20224;-72
2021/01/11 02:01:10;;;;;;;20.00;12.47;;;;;;;-0.77;100.00;98479.50;5108902;28;20303;-73
2021/01/11 02:03:37;;;;;;;18.80;12.53;;;;;;;-0.76;100.00;98481.09;5109133;28;20614;-72
2021/01/11 02:06:04;;;;;;;18.33;11.87;;;;;;;-0.69;100.00;98479.00;5091627;28;20219;-72
2021/01/11 02:08:55;;;;;;;18.90;11.93;;;;;;;-0.73;100.00;98479.78;5108231;28;20255;-72
2021/01/11 02:11:48;;;;;;;18.93;11.77;;;;;;;-0.93;100.00;98474.97;5109348;28;20672;-71
2021/01/11 02:14:22;;;;;;;20.40;12.77;;;;;;;-0.93;100.00;98485.81;5108013;28;20234;-72
2021/01/11 02:17:13;;;;;;;17.87;11.90;;;;;;;-0.88;100.00;98472.34;5108668;28;20231;-72
2021/01/11 02:20:19;;;;;;;16.53;11.70;;;;;;;-0.95;100.00;98474.44;5110019;28;20204;-72
2021/01/11 02:23:13;;;;;;;19.27;12.47;;;;;;;-0.94;100.00;98480.66;5109147;28;20288;-72
2021/01/11 02:25:48;;;;;;;18.03;12.27;;;;;;;-1.02;100.00;98476.50;5108725;28;20661;-72
2021/01/11 02:28:49;;;;;;;16.60;11.33;;;;;;;-1.15;100.00;98476.94;5108516;28;20230;-71
2021/01/11 02:31:16;;;;;;;19.17;11.70;;;;;;;-1.10;100.00;98479.69;5107490;28;20298;-72
2021/01/11 02:33:45;;;;;;;18.00;11.43;;;;;;;-1.08;100.00;98480.25;5128436;28;20318;-72
2021/01/11 02:36:12;;;;;;;17.83;11.83;;;;;;;-1.12;100.00;98484.53;5128846;28;20210;-71
2021/01/11 02:38:40;;;;;;;17.53;11.57;;;;;;;-1.22;100.00;98492.53;5128825;28;20880;-71
2021/01/11 02:41:06;;;;;;;17.80;11.53;;;;;;;-1.07;100.00;98481.88;5128924;28;20306;-72
2021/01/11 02:43:32;;;;;;;18.30;12.10;;;;;;;-1.07;100.00;98490.00;5091774;28;20686;-71
2021/01/11 02:45:58;;;;;;;19.07;10.77;;;;;;;-1.05;100.00;98494.09;5114790;28;20211;-72
2021/01/11 02:48:28;;;;;;;17.53;11.93;;;;;;;-1.17;100.00;98490.69;5115046;28;20242;-71
2021/01/11 02:50:57;;;;;;;16.87;11.03;;;;;;;-1.22;100.00;98487.09;5114821;28;20295;-72
2021/01/11 02:53:32;;;;;;;16.30;10.93;;;;;;;-1.20;100.00;98484.97;5114450;28;20609;-72
2021/01/11 02:56:02;;;;;;;17.83;11.73;;;;;;;-1.19;100.00;98487.41;5115528;28;20646;-72
2021/01/11 02:58:44;;;;;;;17.83;10.77;;;;;;;-1.19;100.00;98486.63;5097387;28;20584;-71
2021/01/11 03:01:16;;;;;;;13.57;9.47;;;;;;;-1.15;100.00;98482.34;5116324;28;20570;-72
2021/01/11 03:03:46;;;;;;;19.07;10.87;;;;;;;-1.21;100.00;98477.94;5115770;28;20722;-72
2021/01/11 03:06:12;;;;;;;16.63;10.63;;;;;;;-1.19;100.00;98476.59;5116398;28;20290;-72
2021/01/11 03:08:39;;;;;;;14.83;9.90;;;;;;;-1.19;100.00;98475.78;5115744;28;20263;-71
2021/01/11 03:11:05;;;;;;;16.80;11.10;;;;;;;-1.29;100.00;98472.94;5115591;28;20206;-72
2021/01/11 03:13:31;;;;;;;15.13;9.97;;;;;;;-1.33;100.00;98464.53;5114921;28;20228;-71
2021/01/11 03:15:57;;;;;;;15.40;9.93;;;;;;;-1.40;100.00;98463.06;5114848;28;20206;-71
2021/01/11 03:18:24;;;;;;;14.40;9.97;;;;;;;-1.40;100.00;98457.66;5114327;28;20722;-70
2021/01/11 03:20:50;;;;;;;15.57;10.00;;;;;;;-1.45;100.00;98452.19;5114566;28;20200;-72
2021/01/11 03:23:17;;;;;;;16.03;10.80;;;;;;;-1.45;100.00;98446.78;5096093;28;20264;-71
2021/01/11 03:25:43;;;;;;;15.37;9.70;;;;;;;-1.57;100.00;98443.41;5114497;28;20204;-72
2021/01/11 03:28:09;;;;;;;14.57;9.67;;;;;;;-1.57;100.00;98441.50;5096111;28;20322;-72
2021/01/11 03:30:35;;;;;;;16.20;9.40;;;;;;;-1.59;100.00;98453.66;5114196;28;20286;-72
2021/01/11 03:33:01;;;;;;;15.87;9.97;;;;;;;-1.53;100.00;98441.81;5095142;28;20335;-71
2021/01/11 03:35:28;;;;;;;14.50;10.00;;;;;;;-1.51;100.00;98451.31;5096170;28;20340;-72
2021/01/11 03:37:54;;;;;;;16.67;10.17;;;;;;;-1.38;100.00;98444.69;5096266;28;20331;-72
2021/01/11 03:40:21;;;;;;;16.30;10.27;;;;;;;-1.35;100.00;98449.63;5114020;28;20756;-71
2021/01/11 03:42:47;;;;;;;17.13;10.77;;;;;;;-1.25;100.00;98455.13;5078926;28;20234;-72
2021/01/11 03:45:13;;;;;;;16.93;11.20;;;;;;;-1.27;100.00;98460.81;5113731;28;20764;-71
2021/01/11 03:47:39;;;;;;;17.60;10.67;;;;;;;-1.22;100.00;98457.31;5095488;28;21092;-71
2021/01/11 03:50:06;;;;;;;17.67;11.40;;;;;;;-1.34;100.00;98453.94;5114042;28;20311;-71
2021/01/11 03:52:34;;;;;;;16.00;10.63;;;;;;;-1.34;100.00;98456.66;5113537;28;20255;-71
2021/01/11 03:55:00;;;;;;;16.73;10.60;;;;;;;-1.30;100.00;98446.97;5113267;28;20283;-72
2021/01/11 03:57:31;;;;;;;15.47;10.00;;;;;;;-1.35;100.00;98444.22;5112849;28;20700;-72
2021/01/11 03:59:58;;;;;;;17.47;10.60;;;;;;;-1.51;100.00;98445.06;5114376;28;20572;-72
2021/01/11 04:02:24;;;;;;;16.17;10.90;;;;;;;-1.36;100.00;98442.56;5114485;28;20240;-72
2021/01/11 04:04:51;;;;;;;14.50;9.77;;;;;;;-1.28;100.00;98440.22;5115043;28;20236;-72
2021/01/11 04:07:17;;;;;;;19.63;10.60;;;;;;;-1.37;100.00;98439.03;5114691;28;20252;-70
2021/01/11 04:09:43;;;;;;;16.97;10.90;;;;;;;-1.42;100.00;98438.16;5113549;28;20204;-71
2021/01/11 04:12:09;;;;;;;19.20;11.20;;;;;;;-1.38;100.00;98440.13;5094753;28;20734;-71
2021/01/11 04:14:35;;;;;;;14.93;10.37;;;;;;;-1.32;100.00;98444.53;5112880;28;20287;-72
2021/01/11 04:17:01;;;;;;;15.50;10.80;;;;;;;-1.23;100.00;98442.16;5113274;28;20236;-71
2021/01/11 04:19:27;;;;;;;16.30;10.77;;;;;;;-1.09;100.00;98437.97;5113495;28;20203;-71
2021/01/11 04:21:54;;;;;;;17.63;10.57;;;;;;;-1.24;100.00;98444.06;5113123;28;20208;-71
2021/01/11 04:24:20;;;;;;;18.20;10.90;;;;;;;-1.24;100.00;98451.38;5092469;28;20254;-70
2021/01/11 04:26:46;;;;;;;18.20;11.50;;;;;;;-1.23;100.00;98453.00;5092794;28;20225;-71
2021/01/11 04:29:12;;;;;;;17.33;11.23;;;;;;;-1.16;100.00;98451.72;5074562;28;20291;-71
2021/01/11 04:31:38;;;;;;;17.90;11.03;;;;;;;-1.02;100.00;98444.00;5092705;28;20204;-70
2021/01/11 04:34:05;;;;;;;18.67;10.70;;;;;;;-1.10;100.00;98447.19;5074021;28;20277;-71
2021/01/11 04:36:34;;;;;;;16.80;10.50;;;;;;;-1.10;100.00;98455.31;5092343;28;20204;-71
2021/01/11 04:39:01;;;;;;;16.03;10.13;;;;;;;-0.95;100.00;98458.19;5092425;28;20773;-71
2021/01/11 04:41:34;;;;;;;17.33;10.83;;;;;;;-0.93;100.00;98464.13;5092367;28;20201;-72
2021/01/11 04:44:07;;;;;;;15.37;10.57;;;;;;;-1.05;100.00;98468.91;5092287;28;20271;-70
2021/01/11 04:46:34;;;;;;;16.50;10.27;;;;;;;-0.96;100.00;98470.06;5092410;28;20630;-71
2021/01/11 04:49:01;;;;;;;17.23;9.90;;;;;;;-1.00;100.00;98460.81;5092601;28;20230;-71
2021/01/11 04:51:27;;;;;;;16.30;10.67;;;;;;;-1.04;100.00;98465.94;5092165;28;20685;-71
2021/01/11 04:53:58;;;;;;;15.47;10.73;;;;;;;-1.07;100.00;98462.91;5073931;28;20228;-71
2021/01/11 04:56:25;;;;;;;20.87;10.77;;;;;;;-1.23;100.00;98463.81;5092490;28;20263;-72
2021/01/11 04:58:54;;;;;;;16.63;10.47;;;;;;;-0.99;100.00;98462.47;5092706;28;20268;-72
2021/01/11 05:01:27;;;;;;;19.43;11.37;;;;;;;-1.23;100.00;98456.53;5092631;28;20611;-72
2021/01/11 05:03:59;;;;;;;20.30;10.60;;;;;;;-1.25;100.00;98460.56;5092405;28;20196;-72
2021/01/11 05:06:25;;;;;;;20.10;12.43;;;;;;;-1.14;100.00;98465.00;5092099;28;20291;-72
2021/01/11 05:08:51;;;;;;;21.33;11.83;;;;;;;-1.23;100.00;98461.94;5091735;28;20216;-72
2021/01/11 05:11:17;;;;;;;19.30;11.70;;;;;;;-1.16;100.00;98461.72;5097792;28;20235;-70
2021/01/11 05:13:43;;;;;;;22.37;11.60;;;;;;;-1.16;100.00;98461.72;5112281;28;20314;-71
2021/01/11 05:16:14;;;;;;;17.80;11.53;;;;;;;-1.15;100.00;98455.25;5086535;28;20295;-70
2021/01/11 05:18:41;;;;;;;23.60;13.03;;;;;;;-1.13;100.00;98453.91;5133620;27;20223;-72
2021/01/11 05:21:08;;;;;;;24.53;13.07;;;;;;;-1.11;100.00;98459.91;5133564;27;20719;-71
2021/01/11 05:23:36;;;;;;;23.10;12.73;;;;;;;-1.17;100.00;98465.53;5114950;27;20235;-71
2021/01/11 05:26:14;;;;;;;22.43;13.13;;;;;;;-1.12;100.00;98462.88;5133718;27;20238;-72
2021/01/11 05:28:42;;;;;;;22.87;13.03;;;;;;;-1.19;100.00;98460.34;5132876;27;20222;-71
2021/01/11 05:31:08;;;;;;;31.00;14.63;;;;;;;-1.25;100.00;98471.38;5132904;28;20285;-72
2021/01/11 05:33:35;;;;;;;23.40;13.47;;;;;;;-1.17;100.00;98473.66;5132045;28;20227;-71
2021/01/11 05:36:13;;;;;;;27.13;13.87;;;;;;;-1.13;100.00;98474.75;5132629;28;20203;-71
2021/01/11 05:38:45;;;;;;;24.37;14.30;;;;;;;-1.14;100.00;98476.66;5115095;28;20226;-71
2021/01/11 05:41:18;;;;;;;24.07;14.00;;;;;;;-1.27;100.00;98468.94;5132673;28;20285;-71
2021/01/11 05:43:49;;;;;;;28.37;14.27;;;;;;;-1.01;100.00;98478.16;5132481;28;20209;-70
2021/01/11 05:46:26;;;;;;;26.27;13.80;;;;;;;-1.13;100.00;98480.16;5115387;28;20199;-71
2021/01/11 05:48:57;;;;;;;21.73;13.63;;;;;;;-1.10;100.00;98485.91;5117368;28;20606;-72
2021/01/11 05:51:24;;;;;;;23.57;13.57;;;;;;;-1.01;100.00;98475.44;5136205;28;20238;-72
2021/01/11 05:53:51;;;;;;;24.00;13.93;;;;;;;-1.25;100.00;98482.22;5133381;28;20711;-71
2021/01/11 05:56:17;;;;;;;21.90;13.93;;;;;;;-1.24;100.00;98473.03;5114070;28;20207;-72
2021/01/11 05:59:01;;;;;;;29.20;15.07;;;;;;;-0.90;100.00;98471.78;5132202;28;20675;-71
2021/01/11 06:01:29;;;;;;;23.53;14.20;;;;;;;-1.00;100.00;98474.34;5132504;28;20282;-71
2021/01/11 06:03:58;;;;;;;24.27;14.17;;;;;;;-1.02;100.00;98484.63;5132153;28;20271;-71
2021/01/11 06:06:25;;;;;;;47.20;14.07;;;;;;;-1.34;100.00;98489.13;5132562;28;20203;-72
2021/01/11 06:08:52;;;;;;;25.87;14.83;;;;;;;-1.10;100.00;98485.91;5132405;28;20295;-72
2021/01/11 06:11:25;;;;;;;23.70;14.43;;;;;;;-1.09;100.00;98492.13;5132160;28;20282;-71
2021/01/11 06:13:57;;;;;;;26.43;14.57;;;;;;;-1.06;100.00;98483.53;5132027;28;20231;-71
2021/01/11 06:16:25;;;;;;;26.70;14.23;;;;;;;-1.06;100.00;98486.22;5132216;28;20381;-71
2021/01/11 06:18:52;;;;;;;24.90;14.03;;;;;;;-1.03;100.00;98488.41;5132617;27;20203;-71
2021/01/11 06:21:20;;;;;;;23.87;14.33;;;;;;;-1.04;100.00;98487.59;5136066;27;20233;-71
2021/01/11 06:23:47;;;;;;;24.90;14.23;;;;;;;-0.93;100.00;98482.28;5135361;27;20203;-72
2021/01/11 06:26:25;;;;;;;25.87;14.83;;;;;;;-1.09;100.00;98486.72;5136074;27;20232;-72
2021/01/11 06:28:51;;;;;;;25.03;15.03;;;;;;;-1.13;100.00;98491.81;5136000;27;20206;-71
2021/01/11 06:31:18;;;;;;;31.70;15.17;;;;;;;-1.34;100.00;98494.56;5135936;27;20735;-72
2021/01/11 06:33:45;;;;;;;25.80;15.10;;;;;;;-1.20;100.00;98491.19;5135374;27;20230;-72
2021/01/11 06:36:23;;;;;;;22.63;14.37;;;;;;;-1.10;100.00;98493.22;5135627;27;20286;-72
2021/01/11 06:38:51;;;;;;;25.10;15.03;;;;;;;-1.19;100.00;98489.31;5135993;27;20358;-72
2021/01/11 06:41:19;;;;;;;28.50;15.63;;;;;;;-1.12;100.00;98484.53;5135222;27;20278;-72
2021/01/11 06:43:49;;;;;;;25.53;15.33;;;;;;;-1.05;100.00;98483.25;5134498;27;20203;-71
2021/01/11 06:46:27;;;;;;;25.60;14.90;;;;;;;-1.22;100.00;98482.50;5133358;27;20635;-71
2021/01/11 06:49:01;;;;;;;26.27;15.97;;;;;;;-1.72;100.00;98491.91;5114748;27;20199;-70
2021/01/11 06:51:39;;;;;;;27.37;15.43;;;;;;;-1.42;100.00;98492.28;5117498;27;20279;-72
2021/01/11 06:54:10;;;;;;;30.13;15.30;;;;;;;-1.39;100.00;98499.91;5135351;27;20309;-72
2021/01/11 06:56:37;;;;;;;26.17;15.77;;;;;;;-1.78;100.00;98498.28;5135427;27;20203;-70
2021/01/11 06:59:17;;;;;;;26.80;15.70;;;;;;;-1.33;100.00;98493.47;5117079;27;20694;-70
2021/01/11 07:01:45;;;;;;;32.97;15.80;;;;;;;-1.38;100.00;98501.53;5135756;27;20293;-74
2021/01/11 07:04:36;;;;;;;26.13;15.30;;;;;;;-1.47;100.00;98494.91;5135519;27;20206;-72
2021/01/11 07:07:02;;;;;;;27.57;15.77;;;;;;;-1.11;100.00;98497.81;5135491;27;20282;-73
2021/01/11 07:09:28;;;;;;;36.17;17.07;;;;;;;-1.24;100.00;98503.59;5135182;27;20298;-72
2021/01/11 07:12:03;;;;;;;34.60;16.93;;;;;;;-1.58;100.00;98512.09;5135000;27;20572;-73
2021/01/11 07:14:58;;;;;;;34.33;17.43;;;;;;;-1.14;100.00;98500.19;5134775;27;20226;-73
2021/01/11 07:17:41;;;;;;;46.80;16.77;;;;;;;-1.29;100.00;98505.44;5116870;27;20229;-73
2021/01/11 07:20:10;;;;;;;53.60;19.03;;;;;;;-1.93;100.00;98514.31;5135048;27;20199;-72
2021/01/11 07:22:38;;;;;;;31.40;18.17;;;;;;;-1.52;100.00;98516.50;5133756;27;20206;-74
2021/01/11 07:25:21;;;;;;;50.43;19.13;;;;;;;-1.77;100.00;98516.16;5133586;27;20638;-73
2021/01/11 07:27:47;;;;;;;29.90;17.83;;;;;;;-1.21;100.00;98510.41;5134744;27;20223;-71
2021/01/11 07:30:17;;;;;;;28.50;17.60;;;;;;;-1.03;100.00;98501.97;5135220;27;20203;-73
2021/01/11 07:32:43;;;;;;;29.93;18.30;;;;;;;-0.89;100.00;98508.59;5139242;27;20262;-75
2021/01/11 07:35:10;;;;;;;34.37;19.00;;;;;;;-0.74;100.00;98513.34;5140836;27;20207;-75
2021/01/11 07:37:36;;;;;;;28.63;18.23;;;;;;;-0.91;100.00;98510.75;5128072;27;20222;-74
2021/01/11 07:40:07;;;;;;;43.13;18.60;;;;;;;-1.82;100.00;98518.78;5134226;27;20289;-74
2021/01/11 07:42:33;;;;;;;35.53;18.23;;;;;;;-1.89;100.00;98521.69;5133122;27;20246;-75
2021/01/11 07:45:11;;;;;;;36.70;18.17;;;;;;;-1.99;100.00;98523.41;5130308;27;20295;-74
2021/01/11 07:47:38;;;;;;;54.73;18.33;;;;;;;-2.32;100.00;98538.56;5134133;27;20696;-73
2021/01/11 07:50:06;;;;;;;32.07;17.20;;;;;;;-2.62;100.00;98537.22;5133846;27;20210;-74
2021/01/11 07:52:33;;;;;;;29.87;18.27;;;;;;;-2.23;100.00;98550.59;5133889;27;20203;-74
2021/01/11 07:55:04;;;;;;;33.23;18.60;;;;;;;-2.34;100.00;98546.13;5114908;27;20208;-74
2021/01/11 07:57:31;;;;;;;31.87;18.67;;;;;;;-2.77;100.00;98545.88;5133336;27;20223;-74
2021/01/11 08:00:10;;;;;;;33.33;19.00;;;;;;;-2.55;100.00;98551.38;5134038;27;20256;-75
2021/01/11 08:02:37;;;;;;;34.37;19.17;;;;;;;-2.43;100.00;98554.88;5133326;27;20228;-73
2021/01/11 08:05:24;;;;;;;35.03;19.63;;;;;;;-2.39;100.00;98543.31;5133162;27;20216;-75
2021/01/11 08:08:01;;;;;;;49.07;20.30;;;;;;;-2.55;100.00;98548.69;5132966;27;20688;-72
2021/01/11 08:10:27;;;;;;;68.43;20.00;;;;;;;-2.73;100.00;98555.13;5115114;27;20229;-73
2021/01/11 08:13:04;;;;;;;46.07;20.70;;;;;;;-1.79;100.00;98556.16;5132647;27;20302;-75
2021/01/11 08:15:30;;;;;;;36.00;20.10;;;;;;;-1.46;100.00;98561.53;5132873;27;20198;-74
2021/01/11 08:17:59;;;;;;;46.97;21.63;;;;;;;-1.70;100.00;98565.50;5133216;27;20742;-74
2021/01/11 08:20:25;;;;;;;51.40;20.93;;;;;;;-2.37;100.00;98570.91;5133338;27;20218;-74
2021/01/11 08:22:51;;;;;;;39.67;18.10;;;;;;;-2.69;100.00;98577.91;5113153;27;20221;-74
2021/01/11 08:25:18;;;;;;;32.60;19.13;;;;;;;-2.78;100.00;98578.53;5132899;27;20198;-73
2021/01/11 08:27:51;;;;;;;30.43;18.07;;;;;;;-1.77;100.00;98581.09;5133010;27;20719;-73
2021/01/11 08:30:23;;;;;;;29.17;17.90;;;;;;;-1.93;100.00;98581.91;5132820;27;20199;-73
2021/01/11 08:32:50;;;;;;;33.53;17.93;;;;;;;-2.31;100.00;98575.34;5132522;27;20222;-74
2021/01/11 08:35:20;;;;;;;28.53;17.90;;;;;;;-1.78;100.00;98568.59;5132745;27;20271;-73
2021/01/11 08:37:46;;;;;;;31.70;17.50;;;;;;;-2.04;100.00;98578.22;5114432;27;20786;-73
2021/01/11 08:40:19;;;;;;;29.37;17.67;;;;;;;-1.72;100.00;98578.44;5133147;27;20199;-75
2021/01/11 08:42:47;;;;;;;40.43;17.33;;;;;;;-2.15;100.00;98579.94;5114715;27;20228;-75
2021/01/11 08:45:34;;;;;;;34.57;19.73;;;;;;;-1.58;100.00;98580.56;5114554;27;20260;-73
2021/01/11 08:48:01;;;;;;;31.67;17.27;;;;;;;-1.84;100.00;98583.13;5114803;27;20313;-73
2021/01/11 08:50:28;;;;;;;33.00;18.03;;;;;;;-1.81;100.00;98579.94;5133061;27;20199;-74
2021/01/11 08:52:55;;;;;;;29.83;18.50;;;;;;;-1.43;100.00;98583.47;5114522;27;20223;-73
2021/01/11 08:55:21;;;;;;;32.23;18.53;;;;;;;-1.54;100.00;98586.28;5096973;27;20281;-74
2021/01/11 08:58:00;;;;;;;30.07;17.80;;;;;;;-1.67;100.00;98581.22;5132567;27;20306;-73
2021/01/11 09:00:27;;;;;;;32.63;17.93;;;;;;;-1.72;100.00;98584.69;5133031;27;20234;-74
2021/01/11 09:02:53;;;;;;;31.73;18.63;;;;;;;-1.58;100.00;98590.53;5097558;27;20214;-74
2021/01/11 09:05:26;;;;;;;28.03;18.20;;;;;;;-1.29;100.00;98595.56;5132564;27;20796;-73
2021/01/11 09:07:53;;;;;;;30.67;17.43;;;;;;;-1.91;100.00;98590.56;5133069;27;20231;-74
2021/01/11 09:10:31;;;;;;;40.90;17.73;;;;;;;-2.11;100.00;98591.91;5132599;27;20298;-73
2021/01/11 09:13:20;;;;;;;30.80;16.67;;;;;;;-2.53;100.00;98593.31;5132725;27;20215;-75
2021/01/11 09:15:46;;;;;;;32.43;17.53;;;;;;;-2.65;100.00;98595.25;5140639;27;20207;-74
2021/01/11 09:18:14;;;;;;;29.23;18.20;;;;;;;-2.76;100.00;98601.53;5151072;27;20207;-74
2021/01/11 09:20:45;;;;;;;35.63;19.23;;;;;;;-2.04;100.00;98601.75;5149083;27;20219;-72
2021/01/11 09:23:12;;;;;;;27.70;16.53;;;;;;;-1.87;100.00;98607.94;5141083;27;20242;-72
2021/01/11 09:25:41;;;;;;;30.03;17.63;;;;;;;-2.29;100.00;98604.81;5113213;28;20628;-72
2021/01/11 09:28:08;;;;;;;31.63;19.53;;;;;;;-2.79;100.00;98615.50;5132174;27;20257;-75
2021/01/11 09:30:36;;;;;;;28.13;18.13;;;;;;;-2.34;100.00;98618.25;5132043;27;20570;-74
2021/01/11 09:33:04;;;;;;;35.50;18.73;;;;;;;-2.01;100.00;98618.28;5112710;28;20227;-73
2021/01/11 09:35:30;;;;;;;32.53;19.07;;;;;;;-1.48;100.00;98617.78;5131145;28;20306;-73
2021/01/11 09:37:56;;;;;;;33.03;19.63;;;;;;;-1.47;100.00;98609.41;5131955;28;20317;-73
2021/01/11 09:40:24;;;;;;;36.97;19.90;;;;;;;-2.12;100.00;98609.16;5132366;28;20298;-74
2021/01/11 09:42:51;;;;;;;33.73;20.37;;;;;;;-1.83;100.00;98609.94;5112728;28;20199;-74
2021/01/11 09:45:18;;;;;;;31.80;19.07;;;;;;;-1.91;100.00;98601.38;5131135;28;20294;-75
2021/01/11 09:47:44;;;;;;;36.03;20.03;;;;;;;-1.47;100.00;98603.16;5131925;28;20288;-75
2021/01/11 09:50:12;;;;;;;30.70;18.33;;;;;;;-2.13;100.00;98599.44;5131829;28;20229;-75
2021/01/11 09:52:38;;;;;;;32.80;19.60;;;;;;;-1.78;100.00;98592.94;5113256;28;20585;-75
2021/01/11 09:55:05;;;;;;;32.83;19.33;;;;;;;-1.56;100.00;98601.94;5132343;27;20207;-75
2021/01/11 09:57:36;;;;;;;38.80;20.40;;;;;;;-2.07;100.00;98598.47;5117321;27;20322;-76
2021/01/11 10:00:11;;;;;;;34.57;19.73;;;;;;;-1.80;100.00;98595.91;5135506;27;20294;-76
2021/01/11 10:02:37;;;;;;;33.83;18.30;;;;;;;-1.80;100.00;98597.78;5135074;27;20245;-76
2021/01/11 10:05:04;;;;;;;33.93;19.23;;;;;;;-2.01;100.00;98587.72;5130959;27;20286;-75
2021/01/11 10:07:30;;;;;;;31.90;19.30;;;;;;;-1.94;100.00;98581.09;5133798;27;20237;-75
2021/01/11 10:09:59;;;;;;;34.23;20.10;;;;;;;-1.78;100.00;98584.84;5135500;27;20231;-75
2021/01/11 10:12:25;;;;;;;33.57;19.50;;;;;;;-1.87;100.00;98589.03;5135431;27;20234;-75
2021/01/11 10:14:51;;;;;;;33.27;19.53;;;;;;;-1.84;100.00;98580.44;5115823;27;20276;-74
2021/01/11 10:17:17;;;;;;;34.77;20.27;;;;;;;-1.53;100.00;98569.78;5135374;27;20222;-74
2021/01/11 10:19:44;;;;;;;35.80;20.17;;;;;;;-2.02;100.00;98562.56;5135983;27;20297;-74
2021/01/11 10:22:10;;;;;;;34.60;20.53;;;;;;;-2.25;100.00;98570.84;5135284;27;20260;-73
2021/01/11 10:24:36;;;;;;;36.07;19.93;;;;;;;-2.56;100.00;98572.19;5134225;27;20199;-73
2021/01/11 10:27:03;;;;;;;36.87;20.93;;;;;;;-2.61;100.00;98585.59;5135557;27;20601;-73
2021/01/11 10:29:29;;;;;;;34.93;20.70;;;;;;;-2.13;100.00;98580.50;5117184;27;20294;-74
2021/01/11 10:31:56;;;;;;;36.07;20.43;;;;;;;-2.68;100.00;98584.91;5135206;27;20562;-74
2021/01/11 10:34:25;;;;;;;33.67;20.07;;;;;;;-2.17;100.00;98592.88;5128205;27;20234;-74
2021/01/11 10:36:54;;;;;;;37.23;19.03;;;;;;;-2.35;100.00;98598.50;5135075;27;20314;-74
2021/01/11 10:39:22;;;;;;;33.63;19.17;;;;;;;-1.76;100.00;98588.13;5135372;27;20297;-73
2021/01/11 10:41:50;;;;;;;31.47;18.13;;;;;;;-1.93;100.00;98588.13;5135301;27;20710;-75
2021/01/11 10:44:16;;;;;;;31.83;17.93;;;;;;;-1.46;100.00;98586.66;5133709;27;20231;-76
2021/01/11 10:46:42;;;;;;;29.27;17.50;;;;;;;-2.03;100.00;98586.06;5134693;27;20227;-73
2021/01/11 10:49:08;;;;;;;33.50;19.17;;;;;;;-2.09;100.00;98589.78;5134467;27;20207;-73
2021/01/11 10:51:36;;;;;;;30.50;18.30;;;;;;;-1.95;100.00;98581.34;5134904;27;20667;-74
2021/01/11 10:54:04;;;;;;;25.13;15.23;;;;;;;-2.65;100.00;98573.66;5134019;27;20227;-75
2021/01/11 10:56:30;;;;;;;26.33;15.50;;;;;;;-2.22;100.00;98568.47;5116665;27;20234;-73
2021/01/11 10:58:56;;;;;;;27.70;16.73;;;;;;;-1.83;100.00;98566.66;5135486;27;20211;-74
2021/01/11 11:01:24;;;;;;;26.50;16.10;;;;;;;-2.25;100.00;98560.84;5135872;27;20660;-75
2021/01/11 11:03:50;;;;;;;31.13;16.83;;;;;;;-2.19;100.00;98557.16;5134823;27;20310;-75
2021/01/11 11:06:21;;;;;;;28.60;16.73;;;;;;;-2.18;100.00;98550.69;5136466;27;20275;-76
2021/01/11 11:08:48;;;;;;;28.30;15.80;;;;;;;-1.74;100.00;98548.94;5134665;27;20227;-76
2021/01/11 11:11:15;;;;;;;30.67;17.73;;;;;;;-2.18;100.00;98550.69;5133584;27;20903;-72
2021/01/11 11:13:42;;;;;;;32.40;17.57;;;;;;;-3.10;100.00;98538.50;5129792;27;20234;-71
2021/01/11 11:16:09;;;;;;;29.10;17.60;;;;;;;-2.65;100.00;98551.22;5132643;27;20249;-72
2021/01/11 11:18:36;;;;;;;26.13;15.50;;;;;;;-2.81;100.00;98536.59;5133468;27;20231;-73
2021/01/11 11:21:07;;;;;;;25.53;14.90;;;;;;;-3.41;100.00;98546.19;5133464;27;20214;-72
2021/01/11 11:23:34;;;;;;;30.67;17.50;;;;;;;-3.06;100.00;98544.22;5132086;27;20224;-72
2021/01/11 11:26:01;;;;;;;30.83;16.87;;;;;;;-2.52;100.00;98534.72;5133125;27;20214;-74
2021/01/11 11:28:29;;;;;;;28.67;16.83;;;;;;;-2.24;100.00;98534.63;5133532;27;20230;-72
2021/01/11 11:30:58;;;;;;;31.53;17.20;;;;;;;-2.33;100.00;98538.81;5133403;27;20256;-72
2021/01/11 11:33:25;;;;;;;29.63;16.63;;;;;;;-2.35;100.00;98530.94;5132126;27;20250;-69
2021/01/11 11:35:52;;;;;;;29.47;16.30;;;;;;;-2.68;100.00;98525.50;5133093;27;20211;-69
2021/01/11 11:38:20;;;;;;;31.63;16.83;;;;;;;-2.55;100.00;98529.78;5131879;27;20715;-76
2021/01/11 11:40:47;;;;;;;34.53;18.47;;;;;;;-1.74;100.00;98531.88;5113380;27;20207;-74
2021/01/11 11:43:14;;;;;;;31.40;17.13;;;;;;;-2.07;100.00;98522.78;5131669;27;20198;-73
2021/01/11 11:45:42;;;;;;;32.67;17.30;;;;;;;-1.62;100.00;98525.31;5133326;27;20820;-73
2021/01/11 11:48:13;;;;;;;38.40;17.43;;;;;;;-1.59;100.00;98521.28;5135789;27;20234;-73
2021/01/11 11:50:42;;;;;;;30.67;16.63;;;;;;;-1.76;100.00;98524.03;5139116;27;20222;-72
2021/01/11 11:53:09;;;;;;;33.80;17.93;;;;;;;-2.01;100.00;98518.25;5117674;27;20211;-73